Terminal Aerodrome Forecast
Issued by NWS

Home | Current Version | Previous Version | Graphics & Text | Print | Product List | Glossary On
Versions: 1 2 3 4 5 6 7 8 9 10 11 12 13 14 15 16
181
FTUS43 KABR 252149 AAA
TAFMBG
TAF AMD
KMBG 252149Z 2522/2618 33018G22KT P6SM SCT024 OVC035
     FM260200 10004KT P6SM BKN060
     FM260800 27007KT P6SM BKN120
     FM261100 32007KT P6SM SCT100=

USA.gov is the U.S. government's official web portal to all federal, state and local government web resources and services.